Time;durP1;ratioP1;P1;durP2;ratioP2;P2;SDS_P1;SDS_P2;PMS_P1;PMS_P2;Temp;Humidity;BMP_temperature;BMP_pressure;BME280_temperature;BME280_humidity;BME280_pressure;Samples;Min_cycle;Max_cycle;Signal;HPM_P1;HPM_P2
2023/06/18 00:02:00;;;;;;;;;;;;;;;;;;5050587;28;19935;-86
2023/06/18 00:04:29;;;;;;;;;;;;;;;;;;5045361;28;19935;-86
2023/06/18 00:06:56;;;;;;;;;;;;;;;;;;5054413;28;19939;-86
2023/06/18 00:09:24;;;;;;;;;;;;;;;;;;5052586;28;19932;-86
2023/06/18 00:11:56;;;;;;;;;;;;;;;;;;5045837;28;19925;-86
2023/06/18 00:14:24;;;;;;;;;;;;;;;;;;5061353;28;19929;-86
2023/06/18 00:16:52;;;;;;;;;;;;;;;;;;5052518;28;19932;-86
2023/06/18 00:19:19;;;;;;;;;;;;;;;;;;5052122;28;19929;-86
2023/06/18 00:21:47;;;;;;;;;;;;;;;;;;5052575;28;19929;-85
2023/06/18 00:24:15;;;;;;;;;;;;;;;;;;5050415;28;20403;-85
2023/06/18 00:26:43;;;;;;;;;;;;;;;;;;5032367;28;19929;-86
2023/06/18 00:29:10;;;;;;;;;;;;;;;;;;5054994;28;20331;-86
2023/06/18 00:31:38;;;;;;;;;;;;;;;;;;5049908;28;19933;-86
2023/06/18 00:34:06;;;;;;;;;;;;;;;;;;5047140;28;19940;-87
2023/06/18 00:36:34;;;;;;;;;;;;;;;;;;5048944;28;19939;-86
2023/06/18 00:39:03;;;;;;;;;;;;;;;;;;5058031;28;20387;-85
2023/06/18 00:41:31;;;;;;;;;;;;;;;;;;5047123;28;19928;-86
2023/06/18 00:43:59;;;;;;;;;;;;;;;;;;5056484;28;19924;-86
2023/06/18 00:46:26;;;;;;;;;;;;;;;;;;5052639;28;19925;-86
2023/06/18 00:48:54;;;;;;;;;;;;;;;;;;5048977;28;19925;-86
2023/06/18 00:51:22;;;;;;;;;;;;;;;;;;5040572;28;19932;-86
2023/06/18 00:53:50;;;;;;;;;;;;;;;;;;5059766;28;19929;-86
2023/06/18 00:56:18;;;;;;;;;;;;;;;;;;5036741;28;20423;-86
2023/06/18 00:58:47;;;;;;;;;;;;;;;;;;5043963;28;19936;-86
2023/06/18 01:01:15;;;;;;;;;;;;;;;;;;5052861;28;19924;-86
2023/06/18 01:03:47;;;;;;;;;;;;;;;;;;5054537;28;20387;-86
2023/06/18 01:06:19;;;;;;;;;;;;;;;;;;5069466;28;19932;-86
2023/06/18 01:08:48;;;;;;;;;;;;;;;;;;5043243;28;19925;-86
2023/06/18 01:11:18;;;;;;;;;;;;;;;;;;5041916;28;19940;-87
2023/06/18 01:13:46;;;;;;;;;;;;;;;;;;5042379;28;19929;-86
2023/06/18 01:16:14;;;;;;;;;;;;;;;;;;5038895;28;19928;-87
2023/06/18 01:18:41;;;;;;;;;;;;;;;;;;5066269;28;21593;-87
2023/06/18 01:21:09;;;;;;;;;;;;;;;;;;5039919;28;19936;-86
2023/06/18 01:23:37;;;;;;;;;;;;;;;;;;5040825;28;19933;-87
2023/06/18 01:26:04;;;;;;;;;;;;;;;;;;5038770;28;19925;-86
2023/06/18 01:28:35;;;;;;;;;;;;;;;;;;5041435;28;19929;-87
2023/06/18 01:31:03;;;;;;;;;;;;;;;;;;5047573;28;19932;-85
2023/06/18 01:33:32;;;;;;;;;;;;;;;;;;5054267;28;19925;-85
2023/06/18 01:36:00;;;;;;;;;;;;;;;;;;5061909;28;19929;-84
2023/06/18 01:38:32;;;;;;;;;;;;;;;;;;5046355;28;19925;-82
2023/06/18 01:41:00;;;;;;;;;;;;;;;;;;5067806;28;19925;-84
2023/06/18 01:43:27;;;;;;;;;;;;;;;;;;5042470;28;19932;-86
2023/06/18 01:45:57;;;;;;;;;;;;;;;;;;5046493;28;19925;-84
2023/06/18 01:48:24;;;;;;;;;;;;;;;;;;5055761;28;19951;-83
2023/06/18 01:50:52;;;;;;;;;;;;;;;;;;5056817;28;19933;-83
2023/06/18 01:53:21;;;;;;;;;;;;;;;;;;5066334;28;19941;-83
2023/06/18 01:55:49;;;;;;;;;;;;;;;;;;5046721;28;19940;-82
2023/06/18 01:58:16;;;;;;;;;;;;;;;;;;5050750;28;19925;-82
2023/06/18 02:00:45;;;;;;;;;;;;;;;;;;5053915;28;20487;-83
2023/06/18 02:03:12;;;;;;;;;;;;;;;;;;5061721;28;19936;-83
2023/06/18 02:05:40;;;;;;;;;;;;;;;;;;5045561;28;19929;-83
2023/06/18 02:08:08;;;;;;;;;;;;;;;;;;5050590;28;19932;-84
2023/06/18 02:10:35;;;;;;;;;;;;;;;;;;5043824;28;19925;-84
2023/06/18 02:13:03;;;;;;;;;;;;;;;;;;5048374;28;19928;-83
2023/06/18 02:15:30;;;;;;;;;;;;;;;;;;5047360;28;19929;-85
2023/06/18 02:17:58;;;;;;;;;;;;;;;;;;5065300;28;19931;-83
2023/06/18 02:20:25;;;;;;;;;;;;;;;;;;5047120;28;19925;-84
2023/06/18 02:22:54;;;;;;;;;;;;;;;;;;5044985;28;19937;-86
2023/06/18 02:25:28;;;;;;;;;;;;;;;;;;5049277;28;19932;-86
2023/06/18 02:27:58;;;;;;;;;;;;;;;;;;5067378;28;20296;-85
2023/06/18 02:30:25;;;;;;;;;;;;;;;;;;5053942;28;19925;-83
2023/06/18 02:32:53;;;;;;;;;;;;;;;;;;5058280;28;19932;-85
2023/06/18 02:35:26;;;;;;;;;;;;;;;;;;5049370;28;20385;-83
2023/06/18 02:37:53;;;;;;;;;;;;;;;;;;5055817;28;19924;-83
2023/06/18 02:40:21;;;;;;;;;;;;;;;;;;5059568;28;20741;-84
2023/06/18 02:42:48;;;;;;;;;;;;;;;;;;5064343;28;19929;-84
2023/06/18 02:45:17;;;;;;;;;;;;;;;;;;5047199;28;20456;-85
2023/06/18 02:47:45;;;;;;;;;;;;;;;;;;5046511;28;19932;-85
2023/06/18 02:50:14;;;;;;;;;;;;;;;;;;5044941;28;19925;-83
2023/06/18 02:52:42;;;;;;;;;;;;;;;;;;5041967;28;19925;-85
2023/06/18 02:55:09;;;;;;;;;;;;;;;;;;5043168;28;19932;-83
2023/06/18 02:57:42;;;;;;;;;;;;;;;;;;5055846;28;19952;-84
2023/06/18 03:00:10;;;;;;;;;;;;;;;;;;5056859;28;20434;-85
2023/06/18 03:02:38;;;;;;;;;;;;;;;;;;5064293;28;19932;-84
2023/06/18 03:05:07;;;;;;;;;;;;;;;;;;5048593;28;19935;-83
2023/06/18 03:07:35;;;;;;;;;;;;;;;;;;5057177;28;19940;-83
2023/06/18 03:10:03;;;;;;;;;;;;;;;;;;5044822;28;19942;-85
2023/06/18 03:12:32;;;;;;;;;;;;;;;;;;5062946;28;19925;-85
2023/06/18 03:15:17;;;;;;;;;;;;;;;;;;5042015;28;19932;-84
2023/06/18 03:17:45;;;;;;;;;;;;;;;;;;5043720;28;20407;-83
2023/06/18 03:20:12;;;;;;;;;;;;;;;;;;5046892;28;19924;-83
2023/06/18 03:22:40;;;;;;;;;;;;;;;;;;5059647;28;19933;-84
2023/06/18 03:25:09;;;;;;;;;;;;;;;;;;5041516;28;19933;-86
2023/06/18 03:27:36;;;;;;;;;;;;;;;;;;5042326;28;20577;-86
2023/06/18 03:30:04;;;;;;;;;;;;;;;;;;5044425;28;19933;-84
2023/06/18 03:32:33;;;;;;;;;;;;;;;;;;5048224;28;19925;-84
2023/06/18 03:35:04;;;;;;;;;;;;;;;;;;5048133;28;22136;-84
2023/06/18 03:37:31;;;;;;;;;;;;;;;;;;5062801;28;19932;-85
2023/06/18 03:39:59;;;;;;;;;;;;;;;;;;5059906;28;19924;-84
2023/06/18 03:42:26;;;;;;;;;;;;;;;;;;5055628;28;20542;-84
2023/06/18 03:44:54;;;;;;;;;;;;;;;;;;5048384;28;19935;-84
2023/06/18 03:47:21;;;;;;;;;;;;;;;;;;5048291;28;19929;-84
2023/06/18 03:49:49;;;;;;;;;;;;;;;;;;5063704;28;19932;-87
2023/06/18 03:52:17;;;;;;;;;;;;;;;;;;5049286;28;19929;-86
2023/06/18 03:54:45;;;;;;;;;;;;;;;;;;5047927;28;19940;-85
2023/06/18 03:57:13;;;;;;;;;;;;;;;;;;5041172;28;19925;-83
2023/06/18 03:59:41;;;;;;;;;;;;;;;;;;5044104;28;20308;-84
2023/06/18 04:02:09;;;;;;;;;;;;;;;;;;5050530;28;19951;-85
2023/06/18 04:04:36;;;;;;;;;;;;;;;;;;5049706;28;19929;-83
2023/06/18 04:07:04;;;;;;;;;;;;;;;;;;5043516;28;19940;-84
2023/06/18 04:09:31;;;;;;;;;;;;;;;;;;5048908;28;19943;-83
2023/06/18 04:11:59;;;;;;;;;;;;;;;;;;5050099;28;20442;-82
2023/06/18 04:14:27;;;;;;;;;;;;;;;;;;5044386;28;19928;-84
2023/06/18 04:16:55;;;;;;;;;;;;;;;;;;5040446;28;20600;-83
2023/06/18 04:19:28;;;;;;;;;;;;;;;;;;5035029;28;20581;-83
2023/06/18 04:21:55;;;;;;;;;;;;;;;;;;5038029;28;20380;-84
2023/06/18 04:24:23;;;;;;;;;;;;;;;;;;5044977;28;19932;-85
2023/06/18 04:26:51;;;;;;;;;;;;;;;;;;5046885;28;19925;-84
2023/06/18 04:29:18;;;;;;;;;;;;;;;;;;5048759;28;20626;-84
2023/06/18 04:31:47;;;;;;;;;;;;;;;;;;5046318;28;19925;-82
2023/06/18 04:34:19;;;;;;;;;;;;;;;;;;5040396;28;19935;-84
2023/06/18 04:36:47;;;;;;;;;;;;;;;;;;5045236;28;19936;-85
2023/06/18 04:39:15;;;;;;;;;;;;;;;;;;5042184;28;19925;-84
2023/06/18 04:41:43;;;;;;;;;;;;;;;;;;5049357;28;20300;-86
2023/06/18 04:44:12;;;;;;;;;;;;;;;;;;5037470;28;19936;-85
2023/06/18 04:46:42;;;;;;;;;;;;;;;;;;5062460;28;19936;-84
2023/06/18 04:49:09;;;;;;;;;;;;;;;;;;5050174;28;19925;-84
2023/06/18 04:51:39;;;;;;;;;;;;;;;;;;5047105;28;19925;-85
2023/06/18 04:54:06;;;;;;;;;;;;;;;;;;5039272;28;19925;-82
2023/06/18 04:56:34;;;;;;;;;;;;;;;;;;5063903;28;20292;-86
2023/06/18 04:59:02;;;;;;;;;;;;;;;;;;5043541;28;20401;-84
2023/06/18 05:01:30;;;;;;;;;;;;;;;;;;5059369;28;19925;-83
2023/06/18 05:03:57;;;;;;;;;;;;;;;;;;5062006;28;19925;-82
2023/06/18 05:06:26;;;;;;;;;;;;;;;;;;5036610;28;19931;-84
2023/06/18 05:08:54;;;;;;;;;;;;;;;;;;5042792;28;20858;-82
2023/06/18 05:11:22;;;;;;;;;;;;;;;;;;5038809;28;19925;-85
2023/06/18 05:13:50;;;;;;;;;;;;;;;;;;5037795;28;19931;-83
2023/06/18 05:16:17;;;;;;;;;;;;;;;;;;5048244;28;19929;-82
2023/06/18 05:18:50;;;;;;;;;;;;;;;;;;5046442;28;19925;-82
2023/06/18 05:21:18;;;;;;;;;;;;;;;;;;5044006;28;19933;-83
2023/06/18 05:23:46;;;;;;;;;;;;;;;;;;5038750;28;20384;-82
2023/06/18 05:26:13;;;;;;;;;;;;;;;;;;5044069;28;20316;-85
2023/06/18 05:28:41;;;;;;;;;;;;;;;;;;5044834;28;19925;-82
2023/06/18 05:31:08;;;;;;;;;;;;;;;;;;5044184;28;20389;-84
2023/06/18 05:33:36;;;;;;;;;;;;;;;;;;5039209;28;19932;-82
2023/06/18 05:36:05;;;;;;;;;;;;;;;;;;5038891;28;19933;-83
2023/06/18 05:38:33;;;;;;;;;;;;;;;;;;5038901;28;20292;-82
2023/06/18 05:41:02;;;;;;;;;;;;;;;;;;5035957;28;19925;-83
2023/06/18 05:43:35;;;;;;;;;;;;;;;;;;5043494;28;19935;-82
2023/06/18 05:46:02;;;;;;;;;;;;;;;;;;5041223;28;19924;-84
2023/06/18 05:48:35;;;;;;;;;;;;;;;;;;5047011;28;19925;-81
2023/06/18 05:51:12;;;;;;;;;;;;;;;;;;5040453;28;20613;-82
2023/06/18 05:53:45;;;;;;;;;;;;;;;;;;5039690;28;19928;-83
2023/06/18 05:56:14;;;;;;;;;;;;;;;;;;5047059;28;19925;-82
2023/06/18 05:58:42;;;;;;;;;;;;;;;;;;5040599;28;20318;-82
2023/06/18 06:01:10;;;;;;;;;;;;;;;;;;5039844;28;19940;-85
2023/06/18 06:03:37;;;;;;;;;;;;;;;;;;5043604;28;19935;-85
2023/06/18 06:06:05;;;;;;;;;;;;;;;;;;5061505;28;19929;-85
2023/06/18 06:08:33;;;;;;;;;;;;;;;;;;5048029;28;19929;-84
2023/06/18 06:11:03;;;;;;;;;;;;;;;;;;5042911;28;20408;-84
2023/06/18 06:13:32;;;;;;;;;;;;;;;;;;5046762;28;19939;-86
2023/06/18 06:16:06;;;;;;;;;;;;;;;;;;5038581;28;20308;-82
2023/06/18 06:18:33;;;;;;;;;;;;;;;;;;5043901;28;19929;-83
2023/06/18 06:21:01;;;;;;;;;;;;;;;;;;5044674;28;20401;-81
2023/06/18 06:23:29;;;;;;;;;;;;;;;;;;5045839;28;19929;-83
2023/06/18 06:25:56;;;;;;;;;;;;;;;;;;5059571;28;20308;-83
2023/06/18 06:28:24;;;;;;;;;;;;;;;;;;5047853;28;19940;-81
2023/06/18 06:30:51;;;;;;;;;;;;;;;;;;5046326;28;19931;-82
2023/06/18 06:33:19;;;;;;;;;;;;;;;;;;5060373;28;19925;-83
2023/06/18 06:35:47;;;;;;;;;;;;;;;;;;5045919;28;19929;-85
2023/06/18 06:38:21;;;;;;;;;;;;;;;;;;5044694;28;20377;-87
2023/06/18 06:40:48;;;;;;;;;;;;;;;;;;5040255;28;19933;-88
2023/06/18 06:43:16;;;;;;;;;;;;;;;;;;5059047;28;19936;-87
2023/06/18 06:46:00;;;;;;;;;;;;;;;;;;5062304;28;19937;-88
2023/06/18 06:48:51;;;;;;;;;;;;;;;;;;5056055;28;19932;-94
2023/06/18 06:51:48;;;;;;;;;;;;;;;;;;5047330;28;19940;-86
2023/06/18 06:54:15;;;;;;;;;;;;;;;;;;5062004;28;19932;-87
2023/06/18 06:56:43;;;;;;;;;;;;;;;;;;5048715;28;20400;-88
2023/06/18 06:59:10;;;;;;;;;;;;;;;;;;5042900;28;19929;-88
2023/06/18 07:01:44;;;;;;;;;;;;;;;;;;5050334;28;19928;-89
2023/06/18 07:04:17;;;;;;;;;;;;;;;;;;5043312;28;19925;-89
2023/06/18 07:06:44;;;;;;;;;;;;;;;;;;5045564;28;19925;-89
2023/06/18 07:09:12;;;;;;;;;;;;;;;;;;5069265;28;21833;-90
2023/06/18 07:11:41;;;;;;;;;;;;;;;;;;5063228;28;19924;-90
2023/06/18 07:14:08;;;;;;;;;;;;;;;;;;5040783;28;19940;-87
2023/06/18 07:16:36;;;;;;;;;;;;;;;;;;5048854;28;19932;-88
2023/06/18 07:19:03;;;;;;;;;;;;;;;;;;5056499;28;19929;-90
2023/06/18 07:21:36;;;;;;;;;;;;;;;;;;5049258;28;20416;-92
2023/06/18 07:24:04;;;;;;;;;;;;;;;;;;5044359;28;19929;-89
2023/06/18 07:26:31;;;;;;;;;;;;;;;;;;5039561;28;19940;-87
2023/06/18 07:28:59;;;;;;;;;;;;;;;;;;5046212;28;20269;-88
2023/06/18 07:31:31;;;;;;;;;;;;;;;;;;5044562;28;19925;-93
2023/06/18 07:33:59;;;;;;;;;;;;;;;;;;5048207;28;19944;-91
2023/06/18 07:36:26;;;;;;;;;;;;;;;;;;5045107;28;19925;-92
2023/06/18 07:38:54;;;;;;;;;;;;;;;;;;5049663;28;19929;-92
2023/06/18 07:41:23;;;;;;;;;;;;;;;;;;5046487;28;19936;-86
2023/06/18 07:43:50;;;;;;;;;;;;;;;;;;5049427;28;19929;-82
2023/06/18 07:46:18;;;;;;;;;;;;;;;;;;5049726;28;20308;-84
2023/06/18 07:48:45;;;;;;;;;;;;;;;;;;5040401;28;19939;-84
2023/06/18 07:51:13;;;;;;;;;;;;;;;;;;5041276;28;19932;-85
2023/06/18 07:53:40;;;;;;;;;;;;;;;;;;5042918;28;20887;-89
2023/06/18 07:56:08;;;;;;;;;;;;;;;;;;5043323;28;19929;-91
2023/06/18 07:58:36;;;;;;;;;;;;;;;;;;5044496;28;19925;-86
2023/06/18 08:01:03;;;;;;;;;;;;;;;;;;5055493;28;19924;-90
2023/06/18 08:03:31;;;;;;;;;;;;;;;;;;5060707;28;19928;-88
2023/06/18 08:05:59;;;;;;;;;;;;;;;;;;5061856;28;19925;-90
2023/06/18 08:08:26;;;;;;;;;;;;;;;;;;5045632;28;19928;-89
2023/06/18 08:10:54;;;;;;;;;;;;;;;;;;5045303;28;20023;-88
2023/06/18 08:13:24;;;;;;;;;;;;;;;;;;5042568;28;19935;-91
2023/06/18 08:15:56;;;;;;;;;;;;;;;;;;5045455;28;19929;-91
2023/06/18 08:18:24;;;;;;;;;;;;;;;;;;5045713;28;19924;-93
2023/06/18 08:20:51;;;;;;;;;;;;;;;;;;5044507;28;19925;-92
2023/06/18 08:23:19;;;;;;;;;;;;;;;;;;5059271;28;19925;-89
2023/06/18 08:25:46;;;;;;;;;;;;;;;;;;5044879;28;19939;-93
2023/06/18 08:28:19;;;;;;;;;;;;;;;;;;5039440;28;19964;-90
2023/06/18 08:30:47;;;;;;;;;;;;;;;;;;5045524;28;19928;-90
2023/06/18 08:33:14;;;;;;;;;;;;;;;;;;5045166;28;19933;-92
2023/06/18 08:35:42;;;;;;;;;;;;;;;;;;5047992;28;19928;-92
2023/06/18 08:38:09;;;;;;;;;;;;;;;;;;5060134;28;19930;-92
2023/06/18 08:40:37;;;;;;;;;;;;;;;;;;5047780;28;19935;-90
2023/06/18 08:43:09;;;;;;;;;;;;;;;;;;5056918;28;19925;-90
2023/06/18 08:45:37;;;;;;;;;;;;;;;;;;5044484;28;19924;-84
2023/06/18 08:48:04;;;;;;;;;;;;;;;;;;5040140;28;19928;-85
2023/06/18 08:50:37;;;;;;;;;;;;;;;;;;5048060;28;19932;-83
2023/06/18 08:53:04;;;;;;;;;;;;;;;;;;5041094;28;19924;-83
2023/06/18 08:55:32;;;;;;;;;;;;;;;;;;5045359;28;19928;-81
2023/06/18 08:58:00;;;;;;;;;;;;;;;;;;5049168;28;19936;-81
2023/06/18 09:00:27;;;;;;;;;;;;;;;;;;5042035;28;22051;-83
2023/06/18 09:02:55;;;;;;;;;;;;;;;;;;5036408;28;19929;-82
2023/06/18 09:05:23;;;;;;;;;;;;;;;;;;5038408;28;19951;-87
2023/06/18 09:07:50;;;;;;;;;;;;;;;;;;5040260;28;20281;-87
2023/06/18 09:10:18;;;;;;;;;;;;;;;;;;5042347;28;19925;-87
2023/06/18 09:12:45;;;;;;;;;;;;;;;;;;5041641;28;19925;-87
2023/06/18 09:15:13;;;;;;;;;;;;;;;;;;5044291;28;19925;-86
2023/06/18 09:17:40;;;;;;;;;;;;;;;;;;5045554;28;19925;-86
2023/06/18 09:20:08;;;;;;;;;;;;;;;;;;5048216;28;19929;-88
2023/06/18 09:22:41;;;;;;;;;;;;;;;;;;5047611;28;20324;-92
2023/06/18 09:25:08;;;;;;;;;;;;;;;;;;5050255;28;19929;-92
2023/06/18 09:27:36;;;;;;;;;;;;;;;;;;5045237;28;19932;-90
2023/06/18 09:30:04;;;;;;;;;;;;;;;;;;5046805;28;19925;-91
2023/06/18 09:32:31;;;;;;;;;;;;;;;;;;5052606;28;19936;-93
2023/06/18 09:35:00;;;;;;;;;;;;;;;;;;5064317;28;20285;-87
2023/06/18 09:37:27;;;;;;;;;;;;;;;;;;5047771;28;19931;-92
2023/06/18 09:39:56;;;;;;;;;;;;;;;;;;5049305;28;19925;-90
2023/06/18 09:42:23;;;;;;;;;;;;;;;;;;5054623;28;19929;-91
2023/06/18 09:44:56;;;;;;;;;;;;;;;;;;5049690;28;19928;-90
2023/06/18 09:47:23;;;;;;;;;;;;;;;;;;5048871;28;19925;-92
2023/06/18 09:49:52;;;;;;;;;;;;;;;;;;5056206;28;19933;-92
2023/06/18 09:52:26;;;;;;;;;;;;;;;;;;5060283;28;19925;-91
2023/06/18 09:54:54;;;;;;;;;;;;;;;;;;5055039;28;19936;-91
2023/06/18 09:57:21;;;;;;;;;;;;;;;;;;5056155;28;19924;-91
2023/06/18 09:59:54;;;;;;;;;;;;;;;;;;5055367;28;19932;-93
2023/06/18 10:02:22;;;;;;;;;;;;;;;;;;5070857;28;19951;-93
2023/06/18 10:04:49;;;;;;;;;;;;;;;;;;5060729;28;19952;-94
2023/06/18 10:07:17;;;;;;;;;;;;;;;;;;5061633;28;20355;-85
2023/06/18 10:09:44;;;;;;;;;;;;;;;;;;5050191;28;19928;-91
2023/06/18 10:12:17;;;;;;;;;;;;;;;;;;5053029;28;19933;-90
2023/06/18 10:14:44;;;;;;;;;;;;;;;;;;5050833;28;20293;-89
2023/06/18 10:17:12;;;;;;;;;;;;;;;;;;5042344;28;19936;-90
2023/06/18 10:19:45;;;;;;;;;;;;;;;;;;5049758;28;19924;-88
2023/06/18 10:22:12;;;;;;;;;;;;;;;;;;5055209;28;19929;-90
2023/06/18 10:24:40;;;;;;;;;;;;;;;;;;5049058;28;19924;-90
2023/06/18 10:27:07;;;;;;;;;;;;;;;;;;5048266;28;19933;-88
2023/06/18 10:29:35;;;;;;;;;;;;;;;;;;5046253;28;19929;-87
2023/06/18 10:32:03;;;;;;;;;;;;;;;;;;5045945;28;19932;-84
2023/06/18 10:34:30;;;;;;;;;;;;;;;;;;5050567;28;19931;-88
2023/06/18 10:36:58;;;;;;;;;;;;;;;;;;5051836;28;19925;-90
2023/06/18 10:39:26;;;;;;;;;;;;;;;;;;5048417;28;19936;-88
2023/06/18 10:41:58;;;;;;;;;;;;;;;;;;5041709;28;19928;-92
2023/06/18 10:44:26;;;;;;;;;;;;;;;;;;5058305;28;20112;-91
2023/06/18 10:46:54;;;;;;;;;;;;;;;;;;5050910;28;19932;-92
2023/06/18 10:49:21;;;;;;;;;;;;;;;;;;5044576;28;19925;-92
2023/06/18 10:51:51;;;;;;;;;;;;;;;;;;5048694;28;19936;-88
2023/06/18 10:54:19;;;;;;;;;;;;;;;;;;5061606;28;20285;-90
2023/06/18 10:56:46;;;;;;;;;;;;;;;;;;5057779;28;19929;-91
2023/06/18 10:59:14;;;;;;;;;;;;;;;;;;5046379;28;19939;-91
2023/06/18 11:01:41;;;;;;;;;;;;;;;;;;5060180;28;20289;-89
2023/06/18 11:04:09;;;;;;;;;;;;;;;;;;5049882;28;19925;-88
2023/06/18 11:06:37;;;;;;;;;;;;;;;;;;5052634;28;19931;-91
2023/06/18 11:09:05;;;;;;;;;;;;;;;;;;5050834;28;19932;-93
2023/06/18 11:11:33;;;;;;;;;;;;;;;;;;5045052;28;19932;-89
2023/06/18 11:14:01;;;;;;;;;;;;;;;;;;5037507;28;19940;-85
2023/06/18 11:16:28;;;;;;;;;;;;;;;;;;5035645;28;19987;-88
2023/06/18 11:19:00;;;;;;;;;;;;;;;;;;5028163;28;20415;-85
2023/06/18 11:21:28;;;;;;;;;;;;;;;;;;5028235;28;19939;-84
2023/06/18 11:23:55;;;;;;;;;;;;;;;;;;5032339;28;19936;-90
2023/06/18 11:26:23;;;;;;;;;;;;;;;;;;5032516;28;19939;-89
2023/06/18 11:28:51;;;;;;;;;;;;;;;;;;5024861;28;20401;-87
2023/06/18 11:31:18;;;;;;;;;;;;;;;;;;5021634;28;19948;-92
2023/06/18 11:33:47;;;;;;;;;;;;;;;;;;5027831;28;21042;-85
2023/06/18 11:36:19;;;;;;;;;;;;;;;;;;5024056;28;20511;-85
2023/06/18 11:38:47;;;;;;;;;;;;;;;;;;5029219;28;19951;-90
2023/06/18 11:41:19;;;;;;;;;;;;;;;;;;5029489;28;19940;-87
2023/06/18 11:43:47;;;;;;;;;;;;;;;;;;5023916;28;21058;-90
2023/06/18 11:46:14;;;;;;;;;;;;;;;;;;5027017;28;19944;-90
2023/06/18 11:48:42;;;;;;;;;;;;;;;;;;5029533;28;19935;-90
2023/06/18 11:51:10;;;;;;;;;;;;;;;;;;5029897;28;19933;-84
2023/06/18 11:53:37;;;;;;;;;;;;;;;;;;5028125;28;20411;-86
2023/06/18 11:56:10;;;;;;;;;;;;;;;;;;5028401;28;19940;-87
2023/06/18 11:58:37;;;;;;;;;;;;;;;;;;5032785;28;21512;-89
2023/06/18 12:01:05;;;;;;;;;;;;;;;;;;5027994;28;19935;-85
2023/06/18 12:03:37;;;;;;;;;;;;;;;;;;5028113;28;19939;-87
2023/06/18 12:06:05;;;;;;;;;;;;;;;;;;5027239;28;20659;-86
2023/06/18 12:08:33;;;;;;;;;;;;;;;;;;5034524;28;20432;-86
2023/06/18 12:11:01;;;;;;;;;;;;;;;;;;5023803;28;20392;-84
2023/06/18 12:13:34;;;;;;;;;;;;;;;;;;5021953;28;20396;-85
2023/06/18 12:16:01;;;;;;;;;;;;;;;;;;5025391;28;19944;-88
2023/06/18 12:18:29;;;;;;;;;;;;;;;;;;5032268;28;19947;-83
2023/06/18 12:20:57;;;;;;;;;;;;;;;;;;5030014;28;21254;-90
2023/06/18 12:23:25;;;;;;;;;;;;;;;;;;5029788;28;19933;-88
2023/06/18 12:25:53;;;;;;;;;;;;;;;;;;5028073;28;20451;-90
2023/06/18 12:28:28;;;;;;;;;;;;;;;;;;5030710;28;19940;-87
2023/06/18 12:30:56;;;;;;;;;;;;;;;;;;5030184;28;20450;-88
2023/06/18 12:33:23;;;;;;;;;;;;;;;;;;5029555;28;19944;-85
2023/06/18 12:35:54;;;;;;;;;;;;;;;;;;5029799;28;20377;-86
2023/06/18 12:38:21;;;;;;;;;;;;;;;;;;5031064;28;19935;-86
2023/06/18 12:40:49;;;;;;;;;;;;;;;;;;5030180;28;19944;-84
2023/06/18 12:43:17;;;;;;;;;;;;;;;;;;5025335;28;19940;-86
2023/06/18 12:45:44;;;;;;;;;;;;;;;;;;5030725;28;19933;-84
2023/06/18 12:48:13;;;;;;;;;;;;;;;;;;5032209;28;19933;-82
2023/06/18 12:50:41;;;;;;;;;;;;;;;;;;5030588;28;19933;-84
2023/06/18 12:53:08;;;;;;;;;;;;;;;;;;5032597;28;19940;-88
2023/06/18 12:55:41;;;;;;;;;;;;;;;;;;5031182;28;19933;-85
2023/06/18 12:58:08;;;;;;;;;;;;;;;;;;5046338;28;19933;-84
2023/06/18 13:00:36;;;;;;;;;;;;;;;;;;5029689;28;19940;-83
2023/06/18 13:03:04;;;;;;;;;;;;;;;;;;5032826;28;20408;-85
2023/06/18 13:05:32;;;;;;;;;;;;;;;;;;5029627;28;20423;-88
2023/06/18 13:08:00;;;;;;;;;;;;;;;;;;5032535;28;19939;-91
2023/06/18 13:10:32;;;;;;;;;;;;;;;;;;5027323;28;21314;-84
2023/06/18 13:13:05;;;;;;;;;;;;;;;;;;5025666;28;19933;-85
2023/06/18 13:15:33;;;;;;;;;;;;;;;;;;5024657;28;20681;-90
2023/06/18 13:18:06;;;;;;;;;;;;;;;;;;5029760;28;19940;-89
2023/06/18 13:20:34;;;;;;;;;;;;;;;;;;5028180;28;19933;-85
2023/06/18 13:23:01;;;;;;;;;;;;;;;;;;5017496;28;21146;-86
2023/06/18 13:25:29;;;;;;;;;;;;;;;;;;5026253;28;20456;-89
2023/06/18 13:27:56;;;;;;;;;;;;;;;;;;5022559;28;19944;-83
2023/06/18 13:30:24;;;;;;;;;;;;;;;;;;5027747;28;19956;-88
2023/06/18 13:32:51;;;;;;;;;;;;;;;;;;5028157;28;20723;-89
2023/06/18 13:35:19;;;;;;;;;;;;;;;;;;5026923;28;19943;-85
2023/06/18 13:37:52;;;;;;;;;;;;;;;;;;5028547;28;19933;-85
2023/06/18 13:40:20;;;;;;;;;;;;;;;;;;5028422;28;19944;-89
2023/06/18 13:42:52;;;;;;;;;;;;;;;;;;5030464;28;19933;-86
2023/06/18 13:45:25;;;;;;;;;;;;;;;;;;5027876;28;19933;-88
2023/06/18 13:47:52;;;;;;;;;;;;;;;;;;5029015;28;19955;-89
2023/06/18 13:50:20;;;;;;;;;;;;;;;;;;5026768;28;19932;-86
2023/06/18 13:52:48;;;;;;;;;;;;;;;;;;5029253;28;19933;-88
2023/06/18 13:55:15;;;;;;;;;;;;;;;;;;5024086;28;20663;-85
2023/06/18 13:57:43;;;;;;;;;;;;;;;;;;5027444;28;19932;-91
2023/06/18 14:00:10;;;;;;;;;;;;;;;;;;5019629;28;19952;-82
2023/06/18 14:02:43;;;;;;;;;;;;;;;;;;5017236;28;19933;-87
2023/06/18 14:05:16;;;;;;;;;;;;;;;;;;5024927;28;20462;-89
2023/06/18 14:07:43;;;;;;;;;;;;;;;;;;5020632;28;19933;-84
2023/06/18 14:10:11;;;;;;;;;;;;;;;;;;5020424;28;19933;-89
2023/06/18 14:12:38;;;;;;;;;;;;;;;;;;4996901;28;20078;-86
2023/06/18 14:15:06;;;;;;;;;;;;;;;;;;5032736;28;19944;-90
2023/06/18 14:17:45;;;;;;;;;;;;;;;;;;5022350;28;19941;-85
2023/06/18 14:20:18;;;;;;;;;;;;;;;;;;5026549;28;21200;-87
2023/06/18 14:22:47;;;;;;;;;;;;;;;;;;5029041;28;19929;-91
2023/06/18 14:25:15;;;;;;;;;;;;;;;;;;5024119;28;20473;-88
2023/06/18 14:27:43;;;;;;;;;;;;;;;;;;5024570;28;19933;-84
2023/06/18 14:30:10;;;;;;;;;;;;;;;;;;5024757;28;19939;-84
2023/06/18 14:32:38;;;;;;;;;;;;;;;;;;5028277;28;19933;-91
2023/06/18 14:35:05;;;;;;;;;;;;;;;;;;5031096;28;19933;-89
2023/06/18 14:37:33;;;;;;;;;;;;;;;;;;5026650;28;19936;-87
2023/06/18 14:40:00;;;;;;;;;;;;;;;;;;5023179;28;19940;-89
2023/06/18 14:42:33;;;;;;;;;;;;;;;;;;5046013;28;19933;-86
2023/06/18 14:45:01;;;;;;;;;;;;;;;;;;5032056;28;19932;-87
2023/06/18 14:47:28;;;;;;;;;;;;;;;;;;5048174;28;19932;-85
2023/06/18 14:49:56;;;;;;;;;;;;;;;;;;5032222;28;20348;-85
2023/06/18 14:52:28;;;;;;;;;;;;;;;;;;5031459;28;20754;-87
2023/06/18 14:55:01;;;;;;;;;;;;;;;;;;5030822;28;19940;-88
2023/06/18 14:57:29;;;;;;;;;;;;;;;;;;5027804;28;19940;-90
2023/06/18 14:59:57;;;;;;;;;;;;;;;;;;5028741;28;20399;-86
2023/06/18 15:02:24;;;;;;;;;;;;;;;;;;5028576;28;21467;-83
2023/06/18 15:04:53;;;;;;;;;;;;;;;;;;5027260;28;19939;-89
2023/06/18 15:07:20;;;;;;;;;;;;;;;;;;5030161;28;20501;-88
2023/06/18 15:09:48;;;;;;;;;;;;;;;;;;5037297;28;19933;-91
2023/06/18 15:12:16;;;;;;;;;;;;;;;;;;5027040;28;19925;-90
2023/06/18 15:14:43;;;;;;;;;;;;;;;;;;5034675;28;19925;-88
2023/06/18 15:17:11;;;;;;;;;;;;;;;;;;5033346;28;19940;-90
2023/06/18 15:19:39;;;;;;;;;;;;;;;;;;5033457;28;19932;-88
2023/06/18 15:22:08;;;;;;;;;;;;;;;;;;5028865;28;20722;-89
2023/06/18 15:24:40;;;;;;;;;;;;;;;;;;5034825;28;19933;-87
2023/06/18 15:27:08;;;;;;;;;;;;;;;;;;5032206;28;19933;-88
2023/06/18 15:29:40;;;;;;;;;;;;;;;;;;5031729;28;20399;-90
2023/06/18 15:32:08;;;;;;;;;;;;;;;;;;5037340;28;20627;-89
2023/06/18 15:34:37;;;;;;;;;;;;;;;;;;5028602;28;21347;-88
2023/06/18 15:37:05;;;;;;;;;;;;;;;;;;5031044;28;19939;-89
2023/06/18 15:39:32;;;;;;;;;;;;;;;;;;5033132;28;19933;-88
2023/06/18 15:42:00;;;;;;;;;;;;;;;;;;5032082;28;19932;-89
2023/06/18 15:44:29;;;;;;;;;;;;;;;;;;5032645;28;19948;-89
2023/06/18 15:46:56;;;;;;;;;;;;;;;;;;5039986;28;19944;-91
2023/06/18 15:49:24;;;;;;;;;;;;;;;;;;5032339;28;20523;-90
2023/06/18 15:51:52;;;;;;;;;;;;;;;;;;5028662;28;20664;-87
2023/06/18 15:54:19;;;;;;;;;;;;;;;;;;5026313;28;19944;-86
2023/06/18 15:56:47;;;;;;;;;;;;;;;;;;5025477;28;19955;-85
2023/06/18 15:59:17;;;;;;;;;;;;;;;;;;5026412;28;19928;-86
2023/06/18 16:01:44;;;;;;;;;;;;;;;;;;5029061;28;19944;-87
2023/06/18 16:04:12;;;;;;;;;;;;;;;;;;5027195;28;19932;-89
2023/06/18 16:06:39;;;;;;;;;;;;;;;;;;5034232;28;19995;-88
2023/06/18 16:09:07;;;;;;;;;;;;;;;;;;5034254;28;20320;-87
2023/06/18 16:11:34;;;;;;;;;;;;;;;;;;5013218;28;19932;-89
2023/06/18 16:14:02;;;;;;;;;;;;;;;;;;5035373;28;19932;-92
2023/06/18 16:16:30;;;;;;;;;;;;;;;;;;5031035;28;19939;-90
2023/06/18 16:18:57;;;;;;;;;;;;;;;;;;5031553;28;19933;-87
2023/06/18 16:21:27;;;;;;;;;;;;;;;;;;5025568;28;19939;-89
2023/06/18 16:23:55;;;;;;;;;;;;;;;;;;5033960;28;19932;-89
2023/06/18 16:26:22;;;;;;;;;;;;;;;;;;5033891;28;19925;-88
2023/06/18 16:28:50;;;;;;;;;;;;;;;;;;5034293;28;19953;-88
2023/06/18 16:31:18;;;;;;;;;;;;;;;;;;5033884;28;19933;-91
2023/06/18 16:33:45;;;;;;;;;;;;;;;;;;5033330;28;19932;-88
2023/06/18 16:36:13;;;;;;;;;;;;;;;;;;5034986;28;19933;-91
2023/06/18 16:38:40;;;;;;;;;;;;;;;;;;5029927;28;19932;-88
2023/06/18 16:41:13;;;;;;;;;;;;;;;;;;5031446;28;21285;-90
2023/06/18 16:43:41;;;;;;;;;;;;;;;;;;5027913;28;19940;-88
2023/06/18 16:46:09;;;;;;;;;;;;;;;;;;5026376;28;19936;-89
2023/06/18 16:48:37;;;;;;;;;;;;;;;;;;5028401;28;19933;-89
2023/06/18 16:51:04;;;;;;;;;;;;;;;;;;5026788;28;20224;-89
2023/06/18 16:53:32;;;;;;;;;;;;;;;;;;5027638;28;19925;-89
2023/06/18 16:55:59;;;;;;;;;;;;;;;;;;5034511;28;19940;-90